Time;durP1;ratioP1;P1;durP2;ratioP2;P2;SDS_P1;SDS_P2;PMS_P1;PMS_P2;Temp;Humidity;BMP_temperature;BMP_pressure;BME280_temperature;BME280_humidity;BME280_pressure;Samples;Min_cycle;Max_cycle;Signal;HPM_P1;HPM_P2
2023/05/23 00:02:18;;;;;;;14.07;6.88;;;;;;;-143.48;90.51;118439.88;5054465;28;20023;-33
2023/05/23 00:04:43;;;;;;;13.05;7.18;;;;;;;-143.48;90.97;118439.88;5054783;28;20033;-33
2023/05/23 00:07:09;;;;;;;13.60;6.80;;;;;;;-143.48;90.97;118439.88;5054446;28;20020;-33
2023/05/23 00:09:34;;;;;;;13.98;7.05;;;;;;;-143.48;90.61;118439.88;5054441;28;20048;-33
2023/05/23 00:12:00;;;;;;;15.77;7.68;;;;;;;-143.48;91.45;118439.88;5054224;28;20025;-33
2023/05/23 00:14:25;;;;;;;14.43;6.88;;;;;;;-143.48;91.14;118439.88;5054365;28;20031;-33
2023/05/23 00:16:51;;;;;;;14.35;6.68;;;;;;;-143.48;90.48;118439.88;5054250;28;20486;-33
2023/05/23 00:19:16;;;;;;;18.10;7.50;;;;;;;-143.48;91.66;118439.88;5053028;28;20090;-33
2023/05/23 00:21:42;;;;;;;17.13;6.75;;;;;;;-143.48;90.45;118439.88;5053881;28;20517;-33
2023/05/23 00:24:09;;;;;;;14.10;6.60;;;;;;;-143.48;89.31;118439.88;5054317;28;20471;-33
2023/05/23 00:26:35;;;;;;;22.85;9.48;;;;;;;-143.48;92.12;118439.88;5054181;28;20100;-33
2023/05/23 00:29:00;;;;;;;22.52;9.35;;;;;;;-143.48;92.81;118439.88;5054315;28;20027;-33
2023/05/23 00:31:26;;;;;;;20.30;10.02;;;;;;;-143.48;93.09;118439.88;5053713;28;20390;-33
2023/05/23 00:33:51;;;;;;;26.45;9.80;;;;;;;-143.48;93.08;118439.88;5053397;28;20032;-33
2023/05/23 00:36:17;;;;;;;13.52;6.95;;;;;;;-143.48;92.12;118439.88;5053605;28;20029;-33
2023/05/23 00:38:44;;;;;;;12.98;6.70;;;;;;;-143.48;91.96;118439.88;5053589;28;20024;-33
2023/05/23 00:41:10;;;;;;;10.15;5.30;;;;;;;-143.48;90.76;118439.88;5053541;28;20112;-33
2023/05/23 00:43:35;;;;;;;14.18;5.65;;;;;;;-143.48;90.63;118439.88;5053605;28;20151;-33
2023/05/23 00:46:01;;;;;;;14.13;6.22;;;;;;;-143.48;91.70;118439.88;5053396;28;20017;-33
2023/05/23 00:48:26;;;;;;;16.77;5.85;;;;;;;-143.48;92.62;118439.88;5053487;28;20028;-33
2023/05/23 00:50:53;;;;;;;14.85;6.10;;;;;;;-143.48;91.76;118439.88;5054026;28;20020;-33
2023/05/23 00:53:19;;;;;;;12.88;6.00;;;;;;;-143.48;92.53;118439.88;5053718;28;20464;-33
2023/05/23 00:55:44;;;;;;;13.98;6.35;;;;;;;-143.48;93.79;118439.88;5053455;28;20029;-33
2023/05/23 00:58:10;;;;;;;9.73;5.70;;;;;;;-143.48;93.83;118439.88;5053586;28;20027;-33
2023/05/23 01:00:37;;;;;;;12.80;6.10;;;;;;;-143.48;93.92;118439.88;5053580;28;20107;-33
2023/05/23 01:03:03;;;;;;;15.32;6.18;;;;;;;-143.48;94.57;118439.88;5035505;28;20029;-33
2023/05/23 01:05:29;;;;;;;13.15;6.00;;;;;;;-143.48;96.02;118439.88;5053254;28;20375;-33
2023/05/23 01:07:55;;;;;;;14.40;6.10;;;;;;;-143.48;97.45;118439.88;5053444;28;20456;-33
2023/05/23 01:10:28;;;;;;;13.60;6.05;;;;;;;-143.48;98.28;118439.88;5053233;28;20029;-33
2023/05/23 01:12:56;;;;;;;13.10;5.80;;;;;;;-143.48;98.39;118439.88;5053454;28;20112;-33
2023/05/23 01:15:31;;;;;;;13.85;5.95;;;;;;;-143.48;98.83;118439.88;5035188;28;20434;-33
2023/05/23 01:18:11;;;;;;;15.10;6.18;;;;;;;-143.48;98.96;118439.88;5053224;28;20029;-33
2023/05/23 01:20:49;;;;;;;11.38;5.35;;;;;;;-143.48;98.95;118439.88;5053159;28;20033;-33
2023/05/23 01:23:54;;;;;;;12.80;5.35;;;;;;;-143.48;98.08;118439.88;5053134;28;20108;-33
2023/05/23 01:26:33;;;;;;;10.18;5.20;;;;;;;-143.48;96.70;118439.88;5035158;28;20028;-33
2023/05/23 01:29:09;;;;;;;11.07;5.55;;;;;;;-143.48;95.96;118439.88;5053257;28;20139;-33
2023/05/23 01:31:36;;;;;;;10.73;5.45;;;;;;;-143.48;95.90;118439.88;5038258;28;20029;-33
2023/05/23 01:34:03;;;;;;;10.77;5.32;;;;;;;-143.48;96.35;118439.88;5057519;28;20053;-33
2023/05/23 01:36:34;;;;;;;12.43;5.57;;;;;;;-143.48;95.27;118439.88;5057215;28;20021;-33
2023/05/23 01:38:59;;;;;;;17.63;5.50;;;;;;;-143.48;95.05;118439.88;5056960;28;20360;-33
2023/05/23 01:41:24;;;;;;;10.73;5.30;;;;;;;-143.48;94.53;118439.88;5057116;28;20028;-33
2023/05/23 01:43:50;;;;;;;13.75;6.07;;;;;;;-143.48;94.77;118439.88;5056860;28;20032;-33
2023/05/23 01:46:16;;;;;;;12.80;5.70;;;;;;;-143.48;94.37;118439.88;5056878;28;20032;-33
2023/05/23 01:48:42;;;;;;;10.95;5.72;;;;;;;-143.48;94.54;118439.88;5056870;28;20104;-33
2023/05/23 01:51:07;;;;;;;15.98;6.13;;;;;;;-143.48;95.89;118439.88;5056618;28;20025;-33
2023/05/23 01:53:34;;;;;;;13.93;5.97;;;;;;;-143.48;96.24;118439.88;5057062;28;20028;-33
2023/05/23 01:56:02;;;;;;;16.25;7.10;;;;;;;-143.48;96.02;118439.88;5056596;28;20035;-33
2023/05/23 01:58:28;;;;;;;15.48;6.40;;;;;;;-143.48;95.90;118439.88;5056908;28;20028;-33
2023/05/23 02:00:53;;;;;;;21.75;7.00;;;;;;;-143.48;95.91;118439.88;5056775;28;20033;-33
2023/05/23 02:03:18;;;;;;;14.80;6.50;;;;;;;-143.48;95.34;118439.88;5056413;28;20021;-33
2023/05/23 02:05:44;;;;;;;16.33;7.00;;;;;;;-143.48;94.75;118439.88;5038980;28;20021;-33
2023/05/23 02:08:09;;;;;;;21.20;7.10;;;;;;;-143.48;94.67;118439.88;5056458;28;20070;-33
2023/05/23 02:10:34;;;;;;;16.67;6.72;;;;;;;-143.48;93.11;118439.88;5056684;28;20096;-33
2023/05/23 02:13:00;;;;;;;16.65;7.30;;;;;;;-143.48;92.91;118439.88;5056299;28;20025;-33
2023/05/23 02:15:25;;;;;;;21.52;6.70;;;;;;;-143.48;92.60;118439.88;5038298;28;20380;-33
2023/05/23 02:17:50;;;;;;;20.42;6.60;;;;;;;-143.48;93.28;118439.88;5056158;28;20492;-33
2023/05/23 02:20:17;;;;;;;24.75;7.13;;;;;;;-143.48;92.55;118439.88;5056215;28;20112;-33
2023/05/23 02:22:43;;;;;;;19.02;6.72;;;;;;;-143.48;92.25;118439.88;5056467;28;20028;-33
2023/05/23 02:25:08;;;;;;;17.98;6.65;;;;;;;-143.48;92.47;118439.88;5056610;28;20028;-33
2023/05/23 02:27:34;;;;;;;19.50;6.55;;;;;;;-143.48;91.93;118439.88;5038240;28;20052;-33
2023/05/23 02:29:59;;;;;;;16.48;6.85;;;;;;;-143.48;91.79;118439.88;5056385;28;20506;-33
2023/05/23 02:32:24;;;;;;;22.45;6.88;;;;;;;-143.48;91.49;118439.88;5056507;28;20029;-33
2023/05/23 02:34:50;;;;;;;19.25;6.95;;;;;;;-143.48;91.23;118439.88;5056365;28;20028;-33
2023/05/23 02:37:15;;;;;;;22.65;6.57;;;;;;;-143.48;91.92;118439.88;5055863;28;20025;-33
2023/05/23 02:39:42;;;;;;;19.95;6.35;;;;;;;-143.48;92.10;118439.88;5056167;28;20029;-33
2023/05/23 02:42:08;;;;;;;20.63;6.55;;;;;;;-143.48;93.44;118439.88;5055294;28;20025;-33
2023/05/23 02:44:33;;;;;;;19.25;6.68;;;;;;;-143.48;91.79;118439.88;5055620;28;20381;-33
2023/05/23 02:46:58;;;;;;;23.15;7.30;;;;;;;-143.48;90.97;118439.88;5055518;28;20013;-33
2023/05/23 02:49:24;;;;;;;19.23;6.40;;;;;;;-143.48;90.65;118439.88;5055846;28;20388;-33
2023/05/23 02:51:49;;;;;;;22.63;7.13;;;;;;;-143.48;90.45;118439.88;5055999;28;20415;-32
2023/05/23 02:54:15;;;;;;;21.73;6.60;;;;;;;-143.48;90.71;118439.88;5056033;28;20456;-32
2023/05/23 02:56:40;;;;;;;24.80;7.72;;;;;;;-143.48;89.47;118439.88;5055990;28;20029;-33
2023/05/23 02:59:06;;;;;;;21.67;7.35;;;;;;;-143.48;90.14;118439.88;5055976;28;20109;-33
2023/05/23 03:01:31;;;;;;;21.58;7.50;;;;;;;-143.48;91.07;118439.88;5055396;28;20100;-32
2023/05/23 03:03:56;;;;;;;28.92;7.32;;;;;;;-143.48;91.40;118439.88;5055612;28;20041;-33
2023/05/23 03:06:22;;;;;;;23.27;7.88;;;;;;;-143.48;90.14;118439.88;5055398;28;20456;-32
2023/05/23 03:08:47;;;;;;;21.25;6.90;;;;;;;-143.48;89.83;118439.88;5055494;28;20028;-33
2023/05/23 03:11:12;;;;;;;21.30;7.50;;;;;;;-143.48;89.62;118439.88;5055243;28;20448;-33
2023/05/23 03:13:38;;;;;;;20.85;7.22;;;;;;;-143.48;90.28;118439.88;5055453;28;20021;-33
2023/05/23 03:16:03;;;;;;;21.85;7.65;;;;;;;-143.48;89.70;118439.88;5055060;28;20077;-33
2023/05/23 03:18:28;;;;;;;26.15;7.22;;;;;;;-143.48;89.85;118439.88;5055015;28;20067;-33
2023/05/23 03:20:54;;;;;;;23.35;6.85;;;;;;;-143.48;90.16;118439.88;5037085;28;20028;-33
2023/05/23 03:23:19;;;;;;;31.05;7.30;;;;;;;-143.48;89.64;118439.88;5055311;28;20029;-33
2023/05/23 03:25:44;;;;;;;26.42;6.78;;;;;;;-143.48;89.67;118439.88;5055300;28;20021;-33
2023/05/23 03:28:11;;;;;;;25.02;7.47;;;;;;;-143.48;88.86;118439.88;5055231;28;20102;-34
2023/05/23 03:30:36;;;;;;;21.83;6.78;;;;;;;-143.48;88.46;118439.88;5055059;28;20052;-33
2023/05/23 03:33:02;;;;;;;23.52;6.55;;;;;;;-143.48;88.45;118439.88;5054940;28;20017;-33
2023/05/23 03:35:27;;;;;;;26.33;6.57;;;;;;;-143.48;88.19;118439.88;5055063;28;20032;-37
2023/05/23 03:37:52;;;;;;;20.77;6.15;;;;;;;-143.48;87.38;118439.88;5054726;28;20049;-33
2023/05/23 03:40:18;;;;;;;22.58;5.60;;;;;;;-143.48;88.15;118439.88;5054685;28;20106;-33
2023/05/23 03:42:43;;;;;;;24.05;6.25;;;;;;;-143.48;88.07;118439.88;5036659;28;20178;-33
2023/05/23 03:45:08;;;;;;;22.77;6.28;;;;;;;-143.48;87.85;118439.88;5055180;28;20029;-33
2023/05/23 03:47:33;;;;;;;23.67;6.07;;;;;;;-143.48;87.86;118439.88;5055063;28;20025;-33
2023/05/23 03:49:59;;;;;;;21.83;6.45;;;;;;;-143.48;88.47;118439.88;5054499;28;20547;-33
2023/05/23 03:52:24;;;;;;;19.60;6.60;;;;;;;-143.48;88.47;118439.88;5054446;28;20063;-33
2023/05/23 03:54:50;;;;;;;30.23;6.22;;;;;;;-143.48;88.23;118439.88;5054805;28;20032;-34
2023/05/23 03:57:15;;;;;;;20.33;4.85;;;;;;;-143.48;87.77;118439.88;5054577;28;20100;-33
2023/05/23 03:59:40;;;;;;;19.88;5.20;;;;;;;-143.48;89.01;118439.88;5054310;28;20415;-33
2023/05/23 04:02:07;;;;;;;23.58;5.40;;;;;;;-143.48;88.97;118439.88;5054436;28;20143;-34
2023/05/23 04:04:32;;;;;;;16.90;5.35;;;;;;;-143.48;89.31;118439.88;5054689;28;20053;-33
2023/05/23 04:06:58;;;;;;;21.27;5.70;;;;;;;-143.48;88.40;118439.88;5054480;28;20082;-33
2023/05/23 04:09:23;;;;;;;17.30;4.90;;;;;;;-143.48;87.16;118439.88;5054476;28;20480;-33
2023/05/23 04:11:48;;;;;;;13.73;4.70;;;;;;;-143.48;86.95;118439.88;5054079;28;20540;-33
2023/05/23 04:14:14;;;;;;;12.13;4.38;;;;;;;-143.48;86.54;118439.88;5054349;28;20029;-32
2023/05/23 04:16:40;;;;;;;13.90;3.65;;;;;;;-143.48;85.96;118439.88;5054213;28;20036;-33
2023/05/23 04:19:06;;;;;;;11.57;3.70;;;;;;;-143.48;85.91;118439.88;5054224;28;20097;-34
2023/05/23 04:21:32;;;;;;;13.63;4.18;;;;;;;-143.48;85.75;118439.88;5054190;28;20475;-33
2023/05/23 04:23:57;;;;;;;13.13;4.13;;;;;;;-143.48;86.21;118439.88;5054208;28;20091;-34
2023/05/23 04:26:22;;;;;;;13.70;4.18;;;;;;;-143.48;87.18;118439.88;5054237;28;20436;-34
2023/05/23 04:28:48;;;;;;;18.33;4.53;;;;;;;-143.48;87.50;118439.88;5054113;28;20352;-34
2023/05/23 04:31:14;;;;;;;15.20;4.65;;;;;;;-143.48;87.55;118439.88;5054062;28;20518;-33
2023/05/23 04:33:40;;;;;;;18.67;4.68;;;;;;;-143.48;87.60;118439.88;5053880;28;20080;-33
2023/05/23 04:36:08;;;;;;;22.48;5.05;;;;;;;-143.48;87.23;118439.88;5053792;28;20032;-33
2023/05/23 04:38:33;;;;;;;17.58;4.43;;;;;;;-143.48;85.87;118439.88;5053908;28;20399;-34
2023/05/23 04:40:58;;;;;;;17.48;4.40;;;;;;;-143.48;86.89;118439.88;5053586;28;20086;-33
2023/05/23 04:43:26;;;;;;;15.27;4.20;;;;;;;-143.48;85.52;118439.88;5053573;28;20075;-33
2023/05/23 04:45:54;;;;;;;17.80;4.65;;;;;;;-143.48;85.10;118439.88;5053515;28;20024;-33
2023/05/23 04:48:22;;;;;;;16.67;4.50;;;;;;;-143.48;85.70;118439.88;5053314;28;20025;-34
2023/05/23 04:50:50;;;;;;;14.88;4.63;;;;;;;-143.48;83.89;118439.88;5053971;28;20056;-33
2023/05/23 04:53:15;;;;;;;14.52;4.15;;;;;;;-143.48;83.72;118439.88;5053392;28;20036;-33
2023/05/23 04:55:40;;;;;;;11.35;4.20;;;;;;;-143.48;84.07;118439.88;5053277;28;20025;-33
2023/05/23 04:58:06;;;;;;;10.52;3.85;;;;;;;-143.48;83.98;118439.88;5053154;28;20078;-33
2023/05/23 05:00:32;;;;;;;16.23;4.30;;;;;;;-143.48;83.31;118439.88;5053286;28;20111;-34
2023/05/23 05:02:57;;;;;;;18.27;4.35;;;;;;;-143.48;82.25;118439.88;5053498;28;20055;-33
2023/05/23 05:05:22;;;;;;;14.75;4.47;;;;;;;-143.48;81.69;118439.88;5053018;28;20025;-33
2023/05/23 05:07:48;;;;;;;14.65;4.25;;;;;;;-143.48;80.59;118439.88;5053498;28;20140;-33
2023/05/23 05:10:15;;;;;;;18.95;4.80;;;;;;;-143.48;81.27;118439.88;5053461;28;20053;-33
2023/05/23 05:12:43;;;;;;;20.20;5.18;;;;;;;-143.48;79.90;118439.88;5053105;28;20024;-33
2023/05/23 05:15:09;;;;;;;20.10;5.25;;;;;;;-143.48;79.00;118439.88;5053166;28;20053;-33
2023/05/23 05:17:36;;;;;;;13.50;4.45;;;;;;;-143.48;79.03;118439.88;5053314;28;20025;-34
2023/05/23 05:20:07;;;;;;;25.00;5.47;;;;;;;-143.48;78.80;118439.88;5053235;28;20032;-33
2023/05/23 05:22:32;;;;;;;17.80;4.90;;;;;;;-143.48;80.12;118439.88;5035321;28;20112;-33
2023/05/23 05:24:57;;;;;;;17.52;5.32;;;;;;;-143.48;79.19;118439.88;5053331;28;20485;-33
2023/05/23 05:27:23;;;;;;;17.15;5.65;;;;;;;-143.48;77.51;118439.88;5053107;28;20418;-34
2023/05/23 05:29:48;;;;;;;17.77;5.22;;;;;;;-143.48;76.60;118439.88;5053256;28;20023;-33
2023/05/23 05:32:14;;;;;;;17.02;5.20;;;;;;;-143.48;75.72;118439.88;5053094;28;20021;-33
2023/05/23 05:34:39;;;;;;;19.08;5.20;;;;;;;-143.48;74.68;118439.88;5053185;28;20135;-33
2023/05/23 05:37:04;;;;;;;14.07;4.78;;;;;;;-143.48;74.29;118439.88;5052861;28;20025;-33
2023/05/23 05:39:30;;;;;;;15.63;5.10;;;;;;;-143.48;74.27;118439.88;5052936;28;20025;-33
2023/05/23 05:41:55;;;;;;;18.30;4.90;;;;;;;-143.48;74.02;118439.88;5052941;28;20095;-33
2023/05/23 05:44:21;;;;;;;15.07;5.47;;;;;;;-143.48;74.84;118439.88;5053172;28;20040;-33
2023/05/23 05:46:47;;;;;;;16.58;5.60;;;;;;;-143.48;75.00;118439.88;5035180;28;20021;-34
2023/05/23 05:49:12;;;;;;;17.15;5.50;;;;;;;-143.48;75.47;118439.88;5052524;28;20047;-33
2023/05/23 05:51:38;;;;;;;18.63;5.45;;;;;;;-143.48;75.83;118439.88;5051672;28;20071;-33
2023/05/23 05:54:03;;;;;;;13.48;5.20;;;;;;;-143.48;74.65;118439.88;5052510;28;20025;-33
2023/05/23 05:56:28;;;;;;;16.95;5.20;;;;;;;-143.48;74.79;118439.88;5051825;28;20029;-34
2023/05/23 05:58:54;;;;;;;14.15;4.95;;;;;;;-143.48;74.43;118439.88;5050717;28;20548;-33
2023/05/23 06:01:19;;;;;;;17.70;5.03;;;;;;;-143.48;74.46;118439.88;5050555;28;20021;-33
2023/05/23 06:03:44;;;;;;;16.33;5.30;;;;;;;-143.48;74.35;118439.88;5050589;28;20078;-33
2023/05/23 06:06:10;;;;;;;15.07;5.47;;;;;;;-143.48;75.06;118439.88;5050720;28;20078;-34
2023/05/23 06:08:35;;;;;;;15.13;4.90;;;;;;;-143.48;75.95;118439.88;5049830;28;20106;-34
2023/05/23 06:11:00;;;;;;;17.60;5.72;;;;;;;-143.48;74.70;118439.88;5050680;28;20052;-33
2023/05/23 06:13:26;;;;;;;16.02;5.13;;;;;;;-143.48;76.44;118439.88;5052819;28;20033;-33
2023/05/23 06:15:51;;;;;;;17.40;5.40;;;;;;;-143.48;77.97;118439.88;5052392;28;20051;-33
2023/05/23 06:18:16;;;;;;;19.38;5.35;;;;;;;-143.48;78.67;118439.88;5037860;28;20032;-34
2023/05/23 06:20:42;;;;;;;19.88;5.47;;;;;;;-143.48;79.93;118439.88;5056471;28;20021;-33
2023/05/23 06:23:07;;;;;;;13.48;5.30;;;;;;;-143.48;79.88;118439.88;5056132;28;20035;-33
2023/05/23 06:25:32;;;;;;;15.07;4.78;;;;;;;-143.48;81.50;118439.88;5055407;28;20121;-35
2023/05/23 06:27:58;;;;;;;15.18;4.70;;;;;;;-143.48;80.75;118439.88;5055966;28;20017;-33
2023/05/23 06:30:23;;;;;;;20.20;5.20;;;;;;;-143.48;83.22;118439.88;5056328;28;20035;-33
2023/05/23 06:32:49;;;;;;;16.95;4.25;;;;;;;-143.48;82.83;118439.88;5055886;28;20021;-33
2023/05/23 06:35:14;;;;;;;13.25;3.95;;;;;;;-143.48;81.49;118439.88;5056229;28;20035;-33
2023/05/23 06:37:44;;;;;;;13.80;3.85;;;;;;;-143.48;81.81;118439.88;5055712;28;20031;-33
2023/05/23 06:40:11;;;;;;;13.15;3.78;;;;;;;-143.48;82.92;118439.88;5055746;28;20104;-33
2023/05/23 06:42:36;;;;;;;13.35;3.70;;;;;;;-143.48;85.93;118439.88;5055969;28;20528;-33
2023/05/23 06:45:01;;;;;;;13.45;3.72;;;;;;;-143.48;86.58;118439.88;5055767;28;20029;-33
2023/05/23 06:47:26;;;;;;;15.13;3.70;;;;;;;-143.48;87.81;118439.88;5055645;28;20021;-33
2023/05/23 06:49:52;;;;;;;14.25;3.28;;;;;;;-143.48;86.77;118439.88;5055372;28;20047;-33
2023/05/23 06:52:17;;;;;;;12.63;3.25;;;;;;;-143.48;85.63;118439.88;5055419;28;20033;-33
2023/05/23 06:54:42;;;;;;;12.00;2.72;;;;;;;-143.48;83.79;118439.88;5055636;28;20435;-34
2023/05/23 06:57:08;;;;;;;14.27;2.80;;;;;;;-143.48;82.20;118439.88;5055302;28;20020;-33
2023/05/23 06:59:33;;;;;;;12.55;3.13;;;;;;;-143.48;78.85;118439.88;5056009;28;20024;-33
2023/05/23 07:01:59;;;;;;;9.95;3.08;;;;;;;-143.48;77.82;118439.88;5055224;28;20021;-33
2023/05/23 07:04:24;;;;;;;16.13;2.40;;;;;;;-143.48;76.14;118439.88;5055388;28;20083;-33
2023/05/23 07:06:51;;;;;;;11.52;2.70;;;;;;;-143.48;73.53;118439.88;5055394;28;20089;-33
2023/05/23 07:09:16;;;;;;;13.95;3.05;;;;;;;-143.48;71.51;118439.88;5055524;28;20020;-34
2023/05/23 07:11:42;;;;;;;16.88;2.63;;;;;;;-143.48;68.20;118439.88;5037290;28;20051;-33
2023/05/23 07:14:07;;;;;;;10.57;2.33;;;;;;;-143.48;65.85;118439.88;5055154;28;20029;-32
2023/05/23 07:16:32;;;;;;;19.88;3.00;;;;;;;-143.48;66.47;118439.88;5055389;28;20048;-34
2023/05/23 07:19:00;;;;;;;19.95;3.08;;;;;;;-143.48;65.30;118439.88;5054384;28;20021;-33
2023/05/23 07:21:25;;;;;;;20.23;3.30;;;;;;;-143.48;65.15;118439.88;5053346;28;20503;-34
2023/05/23 07:23:50;;;;;;;20.42;3.88;;;;;;;-143.48;66.01;118439.88;5052840;28;20021;-33
2023/05/23 07:26:16;;;;;;;21.60;3.05;;;;;;;-143.48;66.18;118439.88;5052826;28;20024;-33
2023/05/23 07:28:41;;;;;;;11.00;2.78;;;;;;;-143.48;65.47;118439.88;5052443;28;20056;-33
2023/05/23 07:31:08;;;;;;;20.33;3.13;;;;;;;-143.48;65.30;118439.88;5052957;28;20025;-35
2023/05/23 07:33:33;;;;;;;17.13;2.90;;;;;;;-143.48;64.65;118439.88;5052673;28;20025;-34
2023/05/23 07:35:59;;;;;;;17.05;3.28;;;;;;;-143.48;63.03;118439.88;5034699;28;20085;-34
2023/05/23 07:38:25;;;;;;;13.82;2.72;;;;;;;-143.48;63.84;118439.88;5053976;28;20032;-33
2023/05/23 07:40:51;;;;;;;18.90;3.28;;;;;;;-143.48;63.50;118439.88;5054933;28;20114;-34
2023/05/23 07:43:16;;;;;;;14.25;3.13;;;;;;;-143.48;61.19;118439.88;5020529;28;20052;-34
2023/05/23 07:45:42;;;;;;;17.67;3.65;;;;;;;-143.48;62.32;118439.88;5053836;28;20043;-34
2023/05/23 07:48:08;;;;;;;14.77;2.88;;;;;;;-143.48;60.74;118439.88;5054299;28;20029;-33
2023/05/23 07:50:34;;;;;;;14.25;2.85;;;;;;;-143.48;62.19;118439.88;5054935;28;20378;-34
2023/05/23 07:52:59;;;;;;;18.45;3.13;;;;;;;-143.48;62.51;118439.88;5036713;28;20029;-34
2023/05/23 07:55:24;;;;;;;21.38;3.15;;;;;;;-143.48;63.47;118439.88;5054703;28;20154;-34
2023/05/23 07:57:51;;;;;;;17.13;2.95;;;;;;;-143.48;63.83;118439.88;5054740;28;20044;-34
2023/05/23 08:00:17;;;;;;;14.20;3.15;;;;;;;-143.48;62.84;118439.88;5055132;28;20032;-35
2023/05/23 08:02:43;;;;;;;13.40;2.95;;;;;;;-143.48;62.25;118439.88;5036573;28;20029;-35
2023/05/23 08:05:09;;;;;;;16.90;2.90;;;;;;;-143.48;59.49;118439.88;5036458;28;20025;-34
2023/05/23 08:07:34;;;;;;;20.63;3.47;;;;;;;-143.48;59.71;118439.88;5036405;28;20032;-34
2023/05/23 08:10:00;;;;;;;18.13;3.00;;;;;;;-143.48;61.44;118439.88;5054038;28;20017;-34
2023/05/23 08:12:25;;;;;;;20.65;3.90;;;;;;;-143.48;58.16;118439.88;5053965;28;20052;-35
2023/05/23 08:14:50;;;;;;;18.50;3.35;;;;;;;-143.48;58.50;118439.88;5054120;28;20047;-33
2023/05/23 08:17:16;;;;;;;19.00;3.35;;;;;;;-143.48;57.19;118439.88;5053804;28;20025;-34
2023/05/23 08:19:41;;;;;;;14.48;2.85;;;;;;;-143.48;57.22;118439.88;5036083;28;20025;-33
2023/05/23 08:22:06;;;;;;;20.00;3.22;;;;;;;-143.48;57.42;118439.88;5054462;28;20100;-33
2023/05/23 08:24:33;;;;;;;18.35;3.42;;;;;;;-143.48;57.43;118439.88;5054115;28;20039;-32
2023/05/23 08:26:59;;;;;;;13.57;3.03;;;;;;;-143.48;54.17;118439.88;5054012;28;20411;-33
2023/05/23 08:29:24;;;;;;;17.58;3.38;;;;;;;-143.48;52.48;118439.88;5053742;28;20024;-34
2023/05/23 08:31:49;;;;;;;12.10;3.25;;;;;;;-143.48;53.84;118439.88;5053054;28;20028;-33
2023/05/23 08:34:15;;;;;;;14.70;3.15;;;;;;;-143.48;54.76;118439.88;5052452;28;20020;-34
2023/05/23 08:36:41;;;;;;;16.58;3.10;;;;;;;-143.48;54.42;118439.88;5053890;28;20374;-33
2023/05/23 08:39:07;;;;;;;13.60;3.70;;;;;;;-143.48;51.96;118439.88;5053776;28;20056;-33
2023/05/23 08:41:33;;;;;;;16.33;3.60;;;;;;;-143.48;50.73;118439.88;5051093;28;20020;-34
2023/05/23 08:44:00;;;;;;;18.63;3.10;;;;;;;-143.48;53.23;118439.88;5051168;28;20021;-34
2023/05/23 08:46:26;;;;;;;13.80;3.13;;;;;;;-143.48;52.18;118439.88;5051170;28;20021;-33
2023/05/23 08:48:53;;;;;;;19.08;3.00;;;;;;;-143.48;50.63;118439.88;5050301;28;20079;-33
2023/05/23 08:51:22;;;;;;;16.63;3.10;;;;;;;-143.48;50.33;118439.88;5051528;28;20021;-33
2023/05/23 08:53:48;;;;;;;12.35;2.95;;;;;;;-143.48;49.76;118439.88;5051595;28;20021;-34
2023/05/23 08:56:15;;;;;;;20.45;3.67;;;;;;;-143.48;51.10;118439.88;5052610;28;20033;-34
2023/05/23 08:58:41;;;;;;;19.77;3.50;;;;;;;-143.48;50.99;118439.88;5053269;28;20025;-33
2023/05/23 09:01:08;;;;;;;13.38;2.95;;;;;;;-143.48;50.71;118439.88;5053517;28;20456;-34
2023/05/23 09:03:36;;;;;;;15.85;3.25;;;;;;;-143.48;52.04;118439.88;5053597;28;20020;-34
2023/05/23 09:06:11;;;;;;;11.68;2.83;;;;;;;-143.48;50.10;118439.88;5053372;28;20099;-33
2023/05/23 09:08:37;;;;;;;19.48;3.33;;;;;;;-143.48;50.01;118439.88;5053467;28;20024;-34
2023/05/23 09:11:04;;;;;;;14.05;3.55;;;;;;;-143.48;51.06;118439.88;5053474;28;20029;-34
2023/05/23 09:13:30;;;;;;;12.48;3.10;;;;;;;-143.48;51.16;118439.88;5053438;28;20104;-34
2023/05/23 09:16:05;;;;;;;21.55;3.60;;;;;;;-143.48;52.75;118439.88;5053069;28;20400;-33
2023/05/23 09:18:36;;;;;;;14.57;3.03;;;;;;;-143.48;51.32;118439.88;5053417;28;20028;-34
2023/05/23 09:21:01;;;;;;;14.32;3.72;;;;;;;-143.48;47.41;118439.88;5053149;28;20444;-33
2023/05/23 09:23:31;;;;;;;12.75;3.25;;;;;;;-143.48;46.79;118439.88;5052920;28;20028;-33
2023/05/23 09:26:01;;;;;;;13.40;2.97;;;;;;;-143.48;46.18;118439.88;5035494;28;20391;-34
2023/05/23 09:28:26;;;;;;;12.18;2.65;;;;;;;-143.48;46.26;118439.88;5053001;28;20052;-34
2023/05/23 09:31:07;;;;;;;12.18;2.83;;;;;;;-143.48;45.99;118439.88;5052988;28;20079;-33
2023/05/23 09:33:39;;;;;;;19.00;3.00;;;;;;;-143.48;48.09;118439.88;5053039;28;20052;-33
2023/05/23 09:36:06;;;;;;;15.20;3.08;;;;;;;-143.48;50.21;118439.88;5053148;28;20438;-34
2023/05/23 09:38:36;;;;;;;16.85;3.00;;;;;;;-143.48;51.35;118439.88;5052802;28;20021;-34
2023/05/23 09:41:02;;;;;;;19.88;3.28;;;;;;;-143.48;51.43;118439.88;5052777;28;20021;-34
2023/05/23 09:43:27;;;;;;;18.10;3.53;;;;;;;-143.48;51.49;118439.88;5053011;28;20127;-34
2023/05/23 09:45:53;;;;;;;17.55;3.25;;;;;;;-143.48;53.25;118439.88;5052571;28;20083;-34
2023/05/23 09:48:20;;;;;;;11.00;3.05;;;;;;;-143.48;52.50;118439.88;5052825;28;20016;-33
2023/05/23 09:50:46;;;;;;;21.42;3.35;;;;;;;-143.48;50.29;118439.88;5053106;28;20452;-33
2023/05/23 09:53:11;;;;;;;15.45;3.13;;;;;;;-143.48;48.57;118439.88;5056097;28;20023;-33
2023/05/23 09:55:38;;;;;;;18.98;3.03;;;;;;;-143.48;45.97;118439.88;5055236;28;20384;-34
2023/05/23 09:58:05;;;;;;;25.05;3.40;;;;;;;-143.48;46.72;118439.88;5055766;28;20021;-34
2023/05/23 10:00:30;;;;;;;14.20;3.00;;;;;;;-143.48;48.31;118439.88;5055450;28;20029;-34
2023/05/23 10:03:12;;;;;;;18.58;3.33;;;;;;;-143.48;51.27;118439.88;5055497;28;20043;-34
2023/05/23 10:05:47;;;;;;;16.27;2.85;;;;;;;-143.48;51.93;118439.88;5055578;28;20487;-34
2023/05/23 10:08:25;;;;;;;17.17;3.28;;;;;;;-143.48;51.74;118439.88;5054742;28;20017;-34
2023/05/23 10:11:13;;;;;;;18.45;3.60;;;;;;;-143.48;51.28;118439.88;5055731;28;20107;-34
2023/05/23 10:13:43;;;;;;;16.00;3.00;;;;;;;-143.48;52.02;118439.88;5055857;28;20067;-34
2023/05/23 10:16:18;;;;;;;14.38;2.97;;;;;;;-143.48;48.50;118439.88;5055394;28;20179;-34
2023/05/23 10:18:44;;;;;;;16.17;3.03;;;;;;;-143.48;47.14;118439.88;5055708;28;20048;-33
2023/05/23 10:21:19;;;;;;;12.82;3.28;;;;;;;-143.48;46.07;118439.88;5055235;28;20057;-33
2023/05/23 10:23:46;;;;;;;14.15;2.78;;;;;;;-143.48;46.92;118439.88;5055081;28;20124;-34
2023/05/23 10:26:12;;;;;;;15.10;3.10;;;;;;;-143.48;47.80;118439.88;5055296;28;20475;-34
2023/05/23 10:28:40;;;;;;;13.93;2.55;;;;;;;-143.48;50.11;118439.88;5054396;28;20095;-34
2023/05/23 10:31:06;;;;;;;15.82;3.17;;;;;;;-143.48;49.96;118439.88;5054543;28;20059;-34
2023/05/23 10:33:40;;;;;;;16.48;3.33;;;;;;;-143.48;52.83;118439.88;5052640;28;20028;-34
2023/05/23 10:36:18;;;;;;;17.40;4.10;;;;;;;-143.48;50.25;118439.88;5052363;28;20096;-33
2023/05/23 10:39:03;;;;;;;14.18;3.70;;;;;;;-143.48;50.82;118439.88;5054322;28;20037;-33
2023/05/23 10:41:42;;;;;;;14.98;3.58;;;;;;;-143.48;50.68;118439.88;5054480;28;20029;-34
2023/05/23 10:44:19;;;;;;;14.80;4.07;;;;;;;-143.48;48.37;118439.88;5053664;28;20448;-34
2023/05/23 10:46:54;;;;;;;15.80;3.10;;;;;;;-143.48;47.50;118439.88;5053988;28;20025;-34
2023/05/23 10:49:38;;;;;;;13.50;2.85;;;;;;;-143.48;45.62;118439.88;5053801;28;20044;-36
2023/05/23 10:52:06;;;;;;;11.30;2.70;;;;;;;-143.48;45.41;118439.88;5053866;28;20123;-33
2023/05/23 10:54:36;;;;;;;11.75;2.75;;;;;;;-143.48;44.85;118439.88;5053262;28;20379;-34
2023/05/23 10:57:05;;;;;;;13.20;2.97;;;;;;;-143.48;43.01;118439.88;5053726;28;20090;-34
2023/05/23 10:59:30;;;;;;;12.25;3.00;;;;;;;-143.48;41.93;118439.88;5053848;28;20029;-34
2023/05/23 11:01:56;;;;;;;13.45;2.78;;;;;;;-143.48;42.50;118439.88;5053312;28;20545;-34